Sidrolandia, Brazil
Current Conditions -  °F | °C
As of 7:00 PM on Monday 22 Dec 2014 (Local Time) from SBCG Reporting Station
Haze Haze  
Wind Chill: 70°   Ceiling: 200
Heat Index: 70°   Visibility: 3mi
Dew Point: 70°   Wind: 6mph
Humidity: 100%   Direction: 210°SSW
Pressure: 29.88"   Gusts: NA
Location:  20.93°S, 54.96°W
Report Text: SBCG 222200Z 21005KT 5000 BR BKN002 SCT013 21/21 Q1012
Loading
Personal Weather Stations






























Interactive Weather Map New forecast layout! Learn more

10-Day Weather Forecast

Advertisements
Track Severe Weather on mobile